sensor_id;sensor_type;location;lat;lon;timestamp;P1;durP1;ratioP1;P2;durP2;ratioP2
49071;SDS011;52656;52.610;10.236;2023-07-13T00:04:52;8.02;;;3.90;;
49071;SDS011;52656;52.610;10.236;2023-07-13T00:07:17;5.90;;;4.00;;
49071;SDS011;52656;52.610;10.236;2023-07-13T00:09:45;10.07;;;4.10;;
49071;SDS011;52656;52.610;10.236;2023-07-13T00:12:28;5.85;;;4.05;;
49071;SDS011;52656;52.610;10.236;2023-07-13T00:14:58;5.72;;;3.55;;
49071;SDS011;52656;52.610;10.236;2023-07-13T00:17:25;7.38;;;4.20;;
49071;SDS011;52656;52.610;10.236;2023-07-13T00:19:52;8.13;;;4.53;;
49071;SDS011;52656;52.610;10.236;2023-07-13T00:22:17;7.22;;;4.57;;
49071;SDS011;52656;52.610;10.236;2023-07-13T00:24:44;6.22;;;4.28;;
49071;SDS011;52656;52.610;10.236;2023-07-13T00:27:10;6.40;;;4.60;;
49071;SDS011;52656;52.610;10.236;2023-07-13T00:29:35;7.55;;;4.30;;
49071;SDS011;52656;52.610;10.236;2023-07-13T00:32:02;7.07;;;4.22;;
49071;SDS011;52656;52.610;10.236;2023-07-13T00:34:28;7.28;;;3.83;;
49071;SDS011;52656;52.610;10.236;2023-07-13T00:36:54;5.57;;;3.97;;
49071;SDS011;52656;52.610;10.236;2023-07-13T00:39:19;6.65;;;4.25;;
49071;SDS011;52656;52.610;10.236;2023-07-13T00:41:46;7.72;;;3.85;;
49071;SDS011;52656;52.610;10.236;2023-07-13T00:44:15;6.68;;;3.65;;
49071;SDS011;52656;52.610;10.236;2023-07-13T00:46:41;5.03;;;3.78;;
49071;SDS011;52656;52.610;10.236;2023-07-13T00:49:08;6.70;;;3.83;;
49071;SDS011;52656;52.610;10.236;2023-07-13T00:51:39;7.07;;;4.10;;
49071;SDS011;52656;52.610;10.236;2023-07-13T00:54:10;7.15;;;3.95;;
49071;SDS011;52656;52.610;10.236;2023-07-13T00:56:43;7.32;;;3.83;;
49071;SDS011;52656;52.610;10.236;2023-07-13T00:59:10;8.05;;;3.92;;
49071;SDS011;52656;52.610;10.236;2023-07-13T01:01:37;9.00;;;3.65;;
49071;SDS011;52656;52.610;10.236;2023-07-13T01:04:04;6.72;;;3.65;;
49071;SDS011;52656;52.610;10.236;2023-07-13T01:06:32;6.25;;;3.67;;
49071;SDS011;52656;52.610;10.236;2023-07-13T01:09:02;6.93;;;4.00;;
49071;SDS011;52656;52.610;10.236;2023-07-13T01:11:29;9.07;;;3.90;;
49071;SDS011;52656;52.610;10.236;2023-07-13T01:13:54;7.40;;;4.50;;
49071;SDS011;52656;52.610;10.236;2023-07-13T01:18:49;5.80;;;4.30;;
49071;SDS011;52656;52.610;10.236;2023-07-13T01:23:40;6.53;;;4.18;;
49071;SDS011;52656;52.610;10.236;2023-07-13T01:26:06;7.68;;;4.35;;
49071;SDS011;52656;52.610;10.236;2023-07-13T01:28:31;5.72;;;3.80;;
49071;SDS011;52656;52.610;10.236;2023-07-13T01:31:01;5.97;;;3.60;;
49071;SDS011;52656;52.610;10.236;2023-07-13T01:35:52;7.05;;;4.15;;
49071;SDS011;52656;52.610;10.236;2023-07-13T01:38:19;5.00;;;4.15;;
49071;SDS011;52656;52.610;10.236;2023-07-13T01:40:46;5.57;;;3.85;;
49071;SDS011;52656;52.610;10.236;2023-07-13T01:45:37;6.10;;;3.45;;
49071;SDS011;52656;52.610;10.236;2023-07-13T01:50:28;5.38;;;3.78;;
49071;SDS011;52656;52.610;10.236;2023-07-13T01:55:20;6.40;;;3.70;;
49071;SDS011;52656;52.610;10.236;2023-07-13T01:57:46;5.85;;;3.70;;
49071;SDS011;52656;52.610;10.236;2023-07-13T02:02:38;7.20;;;3.92;;
49071;SDS011;52656;52.610;10.236;2023-07-13T02:07:29;7.15;;;3.83;;
49071;SDS011;52656;52.610;10.236;2023-07-13T02:12:20;7.03;;;4.27;;
49071;SDS011;52656;52.610;10.236;2023-07-13T02:17:10;7.30;;;3.90;;
49071;SDS011;52656;52.610;10.236;2023-07-13T02:22:01;6.28;;;4.13;;
49071;SDS011;52656;52.610;10.236;2023-07-13T02:26:52;6.25;;;4.00;;
49071;SDS011;52656;52.610;10.236;2023-07-13T02:31:43;6.47;;;3.78;;
49071;SDS011;52656;52.610;10.236;2023-07-13T02:36:33;8.48;;;4.03;;
49071;SDS011;52656;52.610;10.236;2023-07-13T02:41:25;8.73;;;4.35;;
49071;SDS011;52656;52.610;10.236;2023-07-13T02:46:16;6.13;;;4.43;;
49071;SDS011;52656;52.610;10.236;2023-07-13T02:51:07;6.60;;;4.38;;
49071;SDS011;52656;52.610;10.236;2023-07-13T02:55:58;5.30;;;4.15;;
49071;SDS011;52656;52.610;10.236;2023-07-13T03:00:49;7.15;;;4.18;;
49071;SDS011;52656;52.610;10.236;2023-07-13T03:05:41;6.60;;;4.22;;
49071;SDS011;52656;52.610;10.236;2023-07-13T03:08:09;7.50;;;4.32;;
49071;SDS011;52656;52.610;10.236;2023-07-13T03:10:35;6.28;;;3.90;;
49071;SDS011;52656;52.610;10.236;2023-07-13T03:15:26;7.05;;;4.15;;
49071;SDS011;52656;52.610;10.236;2023-07-13T03:20:17;6.70;;;3.90;;
49071;SDS011;52656;52.610;10.236;2023-07-13T03:25:08;7.95;;;4.53;;
49071;SDS011;52656;52.610;10.236;2023-07-13T03:29:59;6.38;;;4.22;;
49071;SDS011;52656;52.610;10.236;2023-07-13T03:34:49;7.80;;;4.50;;
49071;SDS011;52656;52.610;10.236;2023-07-13T03:39:40;8.38;;;4.70;;
49071;SDS011;52656;52.610;10.236;2023-07-13T03:44:31;5.68;;;4.63;;
49071;SDS011;52656;52.610;10.236;2023-07-13T03:49:22;6.50;;;4.28;;
49071;SDS011;52656;52.610;10.236;2023-07-13T03:54:13;5.47;;;4.07;;
49071;SDS011;52656;52.610;10.236;2023-07-13T03:59:04;6.15;;;4.05;;
49071;SDS011;52656;52.610;10.236;2023-07-13T04:03:54;6.68;;;4.28;;
49071;SDS011;52656;52.610;10.236;2023-07-13T04:08:52;8.23;;;4.15;;
49071;SDS011;52656;52.610;10.236;2023-07-13T04:11:19;8.43;;;3.83;;
49071;SDS011;52656;52.610;10.236;2023-07-13T04:13:46;5.20;;;3.65;;
49071;SDS011;52656;52.610;10.236;2023-07-13T04:16:12;4.93;;;3.45;;
49071;SDS011;52656;52.610;10.236;2023-07-13T04:18:39;7.40;;;3.40;;
49071;SDS011;52656;52.610;10.236;2023-07-13T04:23:30;8.25;;;3.30;;
49071;SDS011;52656;52.610;10.236;2023-07-13T04:28:24;5.67;;;2.77;;
49071;SDS011;52656;52.610;10.236;2023-07-13T04:30:51;4.53;;;2.60;;
49071;SDS011;52656;52.610;10.236;2023-07-13T04:33:16;6.55;;;2.42;;
49071;SDS011;52656;52.610;10.236;2023-07-13T04:35:45;6.90;;;2.80;;
49071;SDS011;52656;52.610;10.236;2023-07-13T04:38:11;7.03;;;2.60;;
49071;SDS011;52656;52.610;10.236;2023-07-13T04:40:37;6.00;;;2.30;;
49071;SDS011;52656;52.610;10.236;2023-07-13T04:43:02;5.68;;;2.45;;
49071;SDS011;52656;52.610;10.236;2023-07-13T04:45:28;5.18;;;2.20;;
49071;SDS011;52656;52.610;10.236;2023-07-13T04:47:53;3.88;;;2.25;;
49071;SDS011;52656;52.610;10.236;2023-07-13T04:50:19;3.75;;;2.40;;
49071;SDS011;52656;52.610;10.236;2023-07-13T04:52:48;5.30;;;2.10;;
49071;SDS011;52656;52.610;10.236;2023-07-13T04:55:14;5.65;;;1.92;;
49071;SDS011;52656;52.610;10.236;2023-07-13T04:57:40;5.65;;;1.95;;
49071;SDS011;52656;52.610;10.236;2023-07-13T05:00:05;5.63;;;2.28;;
49071;SDS011;52656;52.610;10.236;2023-07-13T05:02:32;6.40;;;1.83;;
49071;SDS011;52656;52.610;10.236;2023-07-13T05:04:59;5.38;;;1.83;;
49071;SDS011;52656;52.610;10.236;2023-07-13T05:07:25;8.15;;;2.05;;
49071;SDS011;52656;52.610;10.236;2023-07-13T05:09:51;7.72;;;2.00;;
49071;SDS011;52656;52.610;10.236;2023-07-13T05:12:17;6.38;;;2.35;;
49071;SDS011;52656;52.610;10.236;2023-07-13T05:14:43;6.03;;;2.10;;
49071;SDS011;52656;52.610;10.236;2023-07-13T05:17:09;2.05;;;1.40;;
49071;SDS011;52656;52.610;10.236;2023-07-13T05:19:34;5.15;;;1.60;;
49071;SDS011;52656;52.610;10.236;2023-07-13T05:22:00;9.40;;;1.63;;
49071;SDS011;52656;52.610;10.236;2023-07-13T05:24:25;7.05;;;2.10;;
49071;SDS011;52656;52.610;10.236;2023-07-13T05:26:51;4.43;;;1.63;;
49071;SDS011;52656;52.610;10.236;2023-07-13T05:29:16;6.40;;;1.50;;
49071;SDS011;52656;52.610;10.236;2023-07-13T05:31:42;5.43;;;1.85;;
49071;SDS011;52656;52.610;10.236;2023-07-13T05:34:07;6.45;;;1.55;;
49071;SDS011;52656;52.610;10.236;2023-07-13T05:36:32;5.75;;;1.58;;
49071;SDS011;52656;52.610;10.236;2023-07-13T05:38:58;4.95;;;1.58;;
49071;SDS011;52656;52.610;10.236;2023-07-13T05:41:23;4.90;;;1.60;;
49071;SDS011;52656;52.610;10.236;2023-07-13T05:43:48;5.20;;;1.73;;
49071;SDS011;52656;52.610;10.236;2023-07-13T05:46:14;5.60;;;1.77;;
49071;SDS011;52656;52.610;10.236;2023-07-13T05:48:39;4.95;;;1.58;;
49071;SDS011;52656;52.610;10.236;2023-07-13T05:51:04;4.68;;;1.83;;
49071;SDS011;52656;52.610;10.236;2023-07-13T05:53:30;5.38;;;1.73;;
49071;SDS011;52656;52.610;10.236;2023-07-13T05:55:55;5.10;;;1.70;;
49071;SDS011;52656;52.610;10.236;2023-07-13T05:58:21;5.97;;;1.70;;
49071;SDS011;52656;52.610;10.236;2023-07-13T06:00:47;8.75;;;1.60;;
49071;SDS011;52656;52.610;10.236;2023-07-13T06:03:13;5.72;;;1.63;;
49071;SDS011;52656;52.610;10.236;2023-07-13T06:05:39;5.63;;;1.85;;
49071;SDS011;52656;52.610;10.236;2023-07-13T06:08:05;4.72;;;1.70;;
49071;SDS011;52656;52.610;10.236;2023-07-13T06:10:32;4.90;;;1.73;;
49071;SDS011;52656;52.610;10.236;2023-07-13T06:12:58;5.65;;;1.92;;
49071;SDS011;52656;52.610;10.236;2023-07-13T06:15:23;4.60;;;1.45;;
49071;SDS011;52656;52.610;10.236;2023-07-13T06:17:49;5.03;;;1.95;;
49071;SDS011;52656;52.610;10.236;2023-07-13T06:20:14;6.80;;;1.95;;
49071;SDS011;52656;52.610;10.236;2023-07-13T06:22:40;5.82;;;1.65;;
49071;SDS011;52656;52.610;10.236;2023-07-13T06:25:05;5.88;;;1.70;;
49071;SDS011;52656;52.610;10.236;2023-07-13T06:27:31;3.58;;;1.38;;
49071;SDS011;52656;52.610;10.236;2023-07-13T06:29:56;3.22;;;1.25;;
49071;SDS011;52656;52.610;10.236;2023-07-13T06:32:21;5.13;;;1.67;;
49071;SDS011;52656;52.610;10.236;2023-07-13T06:34:47;6.40;;;1.77;;
49071;SDS011;52656;52.610;10.236;2023-07-13T06:37:12;6.68;;;2.05;;
49071;SDS011;52656;52.610;10.236;2023-07-13T06:39:37;5.28;;;1.45;;
49071;SDS011;52656;52.610;10.236;2023-07-13T06:42:03;6.47;;;1.40;;
49071;SDS011;52656;52.610;10.236;2023-07-13T06:44:29;5.50;;;1.77;;
49071;SDS011;52656;52.610;10.236;2023-07-13T06:46:54;6.68;;;1.40;;
49071;SDS011;52656;52.610;10.236;2023-07-13T06:49:20;5.22;;;1.73;;
49071;SDS011;52656;52.610;10.236;2023-07-13T06:51:45;5.10;;;1.65;;
49071;SDS011;52656;52.610;10.236;2023-07-13T06:54:10;5.18;;;1.52;;
49071;SDS011;52656;52.610;10.236;2023-07-13T06:56:36;6.05;;;1.55;;
49071;SDS011;52656;52.610;10.236;2023-07-13T06:59:01;6.75;;;1.83;;
49071;SDS011;52656;52.610;10.236;2023-07-13T07:01:26;5.53;;;1.65;;
49071;SDS011;52656;52.610;10.236;2023-07-13T07:03:52;3.13;;;1.67;;
49071;SDS011;52656;52.610;10.236;2023-07-13T07:06:18;3.58;;;1.42;;
49071;SDS011;52656;52.610;10.236;2023-07-13T07:08:45;3.85;;;1.35;;
49071;SDS011;52656;52.610;10.236;2023-07-13T07:11:12;6.15;;;1.40;;
49071;SDS011;52656;52.610;10.236;2023-07-13T07:13:39;6.05;;;1.77;;
49071;SDS011;52656;52.610;10.236;2023-07-13T07:16:04;5.20;;;1.55;;
49071;SDS011;52656;52.610;10.236;2023-07-13T07:18:29;7.22;;;1.90;;
49071;SDS011;52656;52.610;10.236;2023-07-13T07:20:55;5.25;;;1.80;;
49071;SDS011;52656;52.610;10.236;2023-07-13T07:23:21;6.20;;;1.83;;
49071;SDS011;52656;52.610;10.236;2023-07-13T07:25:47;6.35;;;2.20;;
49071;SDS011;52656;52.610;10.236;2023-07-13T07:28:14;6.18;;;1.75;;
49071;SDS011;52656;52.610;10.236;2023-07-13T07:30:43;7.07;;;1.85;;
49071;SDS011;52656;52.610;10.236;2023-07-13T07:33:11;7.20;;;1.90;;
49071;SDS011;52656;52.610;10.236;2023-07-13T07:35:37;4.63;;;1.67;;
49071;SDS011;52656;52.610;10.236;2023-07-13T07:38:02;6.55;;;1.73;;
49071;SDS011;52656;52.610;10.236;2023-07-13T07:40:28;5.85;;;1.55;;
49071;SDS011;52656;52.610;10.236;2023-07-13T07:42:53;7.63;;;1.80;;
49071;SDS011;52656;52.610;10.236;2023-07-13T07:45:19;7.50;;;1.50;;
49071;SDS011;52656;52.610;10.236;2023-07-13T07:47:45;7.65;;;1.48;;
49071;SDS011;52656;52.610;10.236;2023-07-13T07:50:10;4.75;;;1.60;;
49071;SDS011;52656;52.610;10.236;2023-07-13T07:52:35;9.68;;;1.92;;
49071;SDS011;52656;52.610;10.236;2023-07-13T07:55:01;6.25;;;1.70;;
49071;SDS011;52656;52.610;10.236;2023-07-13T07:57:29;5.43;;;1.70;;
49071;SDS011;52656;52.610;10.236;2023-07-13T07:59:54;6.35;;;1.85;;
49071;SDS011;52656;52.610;10.236;2023-07-13T08:02:20;4.53;;;1.80;;
49071;SDS011;52656;52.610;10.236;2023-07-13T08:04:45;4.20;;;1.50;;
49071;SDS011;52656;52.610;10.236;2023-07-13T08:07:10;6.82;;;2.10;;
49071;SDS011;52656;52.610;10.236;2023-07-13T08:09:36;9.30;;;2.00;;
49071;SDS011;52656;52.610;10.236;2023-07-13T08:12:01;3.90;;;1.67;;
49071;SDS011;52656;52.610;10.236;2023-07-13T08:14:27;5.45;;;1.67;;
49071;SDS011;52656;52.610;10.236;2023-07-13T08:16:52;6.68;;;1.90;;
49071;SDS011;52656;52.610;10.236;2023-07-13T08:19:18;4.95;;;1.27;;
49071;SDS011;52656;52.610;10.236;2023-07-13T08:21:44;5.88;;;1.83;;
49071;SDS011;52656;52.610;10.236;2023-07-13T08:24:09;4.28;;;1.33;;
49071;SDS011;52656;52.610;10.236;2023-07-13T08:26:34;9.02;;;2.13;;
49071;SDS011;52656;52.610;10.236;2023-07-13T08:29:00;6.10;;;1.80;;
49071;SDS011;52656;52.610;10.236;2023-07-13T08:31:25;4.88;;;1.33;;
49071;SDS011;52656;52.610;10.236;2023-07-13T08:33:50;3.72;;;1.48;;
49071;SDS011;52656;52.610;10.236;2023-07-13T08:36:16;6.10;;;1.50;;
49071;SDS011;52656;52.610;10.236;2023-07-13T08:38:41;3.65;;;1.40;;
49071;SDS011;52656;52.610;10.236;2023-07-13T08:41:14;5.30;;;1.63;;
49071;SDS011;52656;52.610;10.236;2023-07-13T08:43:42;6.78;;;1.50;;
49071;SDS011;52656;52.610;10.236;2023-07-13T08:46:16;5.38;;;1.40;;
49071;SDS011;52656;52.610;10.236;2023-07-13T08:48:49;3.25;;;1.20;;
49071;SDS011;52656;52.610;10.236;2023-07-13T08:53:54;5.35;;;1.40;;
49071;SDS011;52656;52.610;10.236;2023-07-13T08:56:24;4.75;;;1.50;;
49071;SDS011;52656;52.610;10.236;2023-07-13T08:58:53;2.50;;;1.30;;
49071;SDS011;52656;52.610;10.236;2023-07-13T09:01:24;2.90;;;1.30;;
49071;SDS011;52656;52.610;10.236;2023-07-13T09:04:05;4.93;;;1.42;;
49071;SDS011;52656;52.610;10.236;2023-07-13T09:09:50;6.10;;;1.63;;
49071;SDS011;52656;52.610;10.236;2023-07-13T09:15:30;4.93;;;1.40;;
49071;SDS011;52656;52.610;10.236;2023-07-13T09:17:59;5.40;;;1.52;;
49071;SDS011;52656;52.610;10.236;2023-07-13T09:20:37;3.63;;;1.40;;
49071;SDS011;52656;52.610;10.236;2023-07-13T09:23:12;4.07;;;1.40;;
49071;SDS011;52656;52.610;10.236;2023-07-13T09:25:42;4.25;;;1.65;;
49071;SDS011;52656;52.610;10.236;2023-07-13T09:28:23;5.63;;;1.60;;
49071;SDS011;52656;52.610;10.236;2023-07-13T09:30:53;5.22;;;1.60;;
49071;SDS011;52656;52.610;10.236;2023-07-13T09:33:28;5.65;;;1.65;;
49071;SDS011;52656;52.610;10.236;2023-07-13T09:35:56;7.32;;;2.17;;
49071;SDS011;52656;52.610;10.236;2023-07-13T09:38:24;5.72;;;1.48;;
49071;SDS011;52656;52.610;10.236;2023-07-13T09:46:35;7.63;;;2.00;;
49071;SDS011;52656;52.610;10.236;2023-07-13T09:49:02;3.45;;;1.40;;
49071;SDS011;52656;52.610;10.236;2023-07-13T09:51:27;3.40;;;0.90;;
49071;SDS011;52656;52.610;10.236;2023-07-13T09:53:53;4.28;;;1.13;;
49071;SDS011;52656;52.610;10.236;2023-07-13T09:56:23;5.90;;;1.55;;
49071;SDS011;52656;52.610;10.236;2023-07-13T09:58:51;4.57;;;1.10;;
49071;SDS011;52656;52.610;10.236;2023-07-13T10:01:16;5.20;;;1.90;;
49071;SDS011;52656;52.610;10.236;2023-07-13T10:03:57;5.22;;;1.60;;
49071;SDS011;52656;52.610;10.236;2023-07-13T10:06:23;4.10;;;1.65;;
49071;SDS011;52656;52.610;10.236;2023-07-13T10:08:52;4.00;;;1.60;;
49071;SDS011;52656;52.610;10.236;2023-07-13T10:13:48;5.35;;;1.35;;
49071;SDS011;52656;52.610;10.236;2023-07-13T10:16:18;4.43;;;1.23;;
49071;SDS011;52656;52.610;10.236;2023-07-13T10:18:58;4.30;;;1.42;;
49071;SDS011;52656;52.610;10.236;2023-07-13T10:21:30;4.47;;;1.50;;
49071;SDS011;52656;52.610;10.236;2023-07-13T10:24:05;4.60;;;1.58;;
49071;SDS011;52656;52.610;10.236;2023-07-13T10:26:39;4.40;;;1.48;;
49071;SDS011;52656;52.610;10.236;2023-07-13T10:29:12;3.42;;;1.52;;
49071;SDS011;52656;52.610;10.236;2023-07-13T10:31:40;5.10;;;1.40;;
49071;SDS011;52656;52.610;10.236;2023-07-13T10:34:09;6.35;;;2.03;;
49071;SDS011;52656;52.610;10.236;2023-07-13T10:36:39;5.57;;;1.52;;
49071;SDS011;52656;52.610;10.236;2023-07-13T10:39:09;5.25;;;1.58;;
49071;SDS011;52656;52.610;10.236;2023-07-13T10:41:41;4.38;;;1.20;;
49071;SDS011;52656;52.610;10.236;2023-07-13T10:44:13;4.28;;;1.25;;
49071;SDS011;52656;52.610;10.236;2023-07-13T10:51:36;3.28;;;1.35;;
49071;SDS011;52656;52.610;10.236;2023-07-13T10:54:14;3.47;;;1.25;;
49071;SDS011;52656;52.610;10.236;2023-07-13T10:56:43;5.60;;;1.58;;
49071;SDS011;52656;52.610;10.236;2023-07-13T11:01:41;4.00;;;1.60;;
49071;SDS011;52656;52.610;10.236;2023-07-13T11:04:15;4.70;;;1.58;;
49071;SDS011;52656;52.610;10.236;2023-07-13T11:06:41;5.55;;;1.60;;
49071;SDS011;52656;52.610;10.236;2023-07-13T11:11:56;4.15;;;1.40;;
49071;SDS011;52656;52.610;10.236;2023-07-13T11:14:28;2.92;;;1.30;;
49071;SDS011;52656;52.610;10.236;2023-07-13T11:16:53;3.72;;;1.30;;
49071;SDS011;52656;52.610;10.236;2023-07-13T11:33:03;3.70;;;1.25;;
49071;SDS011;52656;52.610;10.236;2023-07-13T11:35:36;3.42;;;1.48;;
49071;SDS011;52656;52.610;10.236;2023-07-13T11:40:53;5.65;;;1.48;;
49071;SDS011;52656;52.610;10.236;2023-07-13T11:43:20;3.63;;;1.50;;
49071;SDS011;52656;52.610;10.236;2023-07-13T11:45:48;3.50;;;1.40;;
49071;SDS011;52656;52.610;10.236;2023-07-13T11:48:18;3.92;;;1.45;;
49071;SDS011;52656;52.610;10.236;2023-07-13T11:50:49;3.58;;;1.42;;
49071;SDS011;52656;52.610;10.236;2023-07-13T11:53:18;4.28;;;1.35;;
49071;SDS011;52656;52.610;10.236;2023-07-13T11:55:43;4.25;;;1.30;;
49071;SDS011;52656;52.610;10.236;2023-07-13T11:58:10;4.20;;;1.50;;
49071;SDS011;52656;52.610;10.236;2023-07-13T12:00:36;3.65;;;1.55;;
49071;SDS011;52656;52.610;10.236;2023-07-13T12:03:03;3.63;;;1.30;;
49071;SDS011;52656;52.610;10.236;2023-07-13T12:05:30;5.60;;;1.58;;
49071;SDS011;52656;52.610;10.236;2023-07-13T12:07:56;4.68;;;1.50;;
49071;SDS011;52656;52.610;10.236;2023-07-13T12:12:58;3.40;;;1.40;;
49071;SDS011;52656;52.610;10.236;2023-07-13T12:15:43;2.95;;;1.40;;
49071;SDS011;52656;52.610;10.236;2023-07-13T12:18:21;3.45;;;1.30;;
49071;SDS011;52656;52.610;10.236;2023-07-13T12:20:49;3.92;;;1.55;;
49071;SDS011;52656;52.610;10.236;2023-07-13T12:23:25;2.60;;;1.30;;
49071;SDS011;52656;52.610;10.236;2023-07-13T12:25:55;3.55;;;1.30;;
49071;SDS011;52656;52.610;10.236;2023-07-13T12:28:38;7.82;;;2.15;;
49071;SDS011;52656;52.610;10.236;2023-07-13T12:34:10;3.67;;;1.80;;
49071;SDS011;52656;52.610;10.236;2023-07-13T12:36:45;2.90;;;1.42;;
49071;SDS011;52656;52.610;10.236;2023-07-13T12:39:53;2.35;;;1.38;;
49071;SDS011;52656;52.610;10.236;2023-07-13T12:44:53;5.43;;;1.52;;
49071;SDS011;52656;52.610;10.236;2023-07-13T12:47:23;2.30;;;1.30;;
49071;SDS011;52656;52.610;10.236;2023-07-13T12:49:50;4.65;;;1.60;;
49071;SDS011;52656;52.610;10.236;2023-07-13T12:52:23;4.30;;;1.70;;
49071;SDS011;52656;52.610;10.236;2023-07-13T12:55:19;5.05;;;1.60;;
49071;SDS011;52656;52.610;10.236;2023-07-13T12:57:49;4.22;;;1.40;;
49071;SDS011;52656;52.610;10.236;2023-07-13T13:00:24;3.75;;;1.58;;
49071;SDS011;52656;52.610;10.236;2023-07-13T13:02:52;3.80;;;1.60;;
49071;SDS011;52656;52.610;10.236;2023-07-13T13:05:20;6.03;;;1.45;;
49071;SDS011;52656;52.610;10.236;2023-07-13T13:07:48;6.07;;;1.58;;
49071;SDS011;52656;52.610;10.236;2023-07-13T13:10:14;3.67;;;1.52;;
49071;SDS011;52656;52.610;10.236;2023-07-13T13:12:40;3.50;;;1.40;;
49071;SDS011;52656;52.610;10.236;2023-07-13T13:15:09;4.78;;;1.73;;
49071;SDS011;52656;52.610;10.236;2023-07-13T13:17:37;5.25;;;1.60;;
49071;SDS011;52656;52.610;10.236;2023-07-13T13:20:19;4.63;;;1.33;;
49071;SDS011;52656;52.610;10.236;2023-07-13T13:22:46;2.85;;;1.40;;
49071;SDS011;52656;52.610;10.236;2023-07-13T13:25:11;2.63;;;1.40;;
49071;SDS011;52656;52.610;10.236;2023-07-13T13:27:37;2.83;;;1.45;;
49071;SDS011;52656;52.610;10.236;2023-07-13T13:30:15;3.60;;;1.42;;
49071;SDS011;52656;52.610;10.236;2023-07-13T13:32:43;3.40;;;1.33;;
49071;SDS011;52656;52.610;10.236;2023-07-13T13:35:15;2.80;;;1.40;;
49071;SDS011;52656;52.610;10.236;2023-07-13T13:37:42;4.13;;;1.55;;
49071;SDS011;52656;52.610;10.236;2023-07-13T13:40:14;7.60;;;1.63;;
49071;SDS011;52656;52.610;10.236;2023-07-13T13:42:41;5.15;;;1.58;;
49071;SDS011;52656;52.610;10.236;2023-07-13T13:45:08;5.90;;;2.17;;
49071;SDS011;52656;52.610;10.236;2023-07-13T13:47:35;7.28;;;1.60;;
49071;SDS011;52656;52.610;10.236;2023-07-13T13:50:01;3.45;;;1.45;;
49071;SDS011;52656;52.610;10.236;2023-07-13T13:52:35;4.95;;;1.73;;
49071;SDS011;52656;52.610;10.236;2023-07-13T13:55:00;4.75;;;1.80;;
49071;SDS011;52656;52.610;10.236;2023-07-13T13:57:26;3.35;;;1.50;;
49071;SDS011;52656;52.610;10.236;2023-07-13T13:59:51;5.10;;;1.38;;
49071;SDS011;52656;52.610;10.236;2023-07-13T14:04:53;5.43;;;1.70;;
49071;SDS011;52656;52.610;10.236;2023-07-13T14:07:21;4.28;;;1.40;;
49071;SDS011;52656;52.610;10.236;2023-07-13T14:09:46;2.28;;;1.45;;
49071;SDS011;52656;52.610;10.236;2023-07-13T14:12:12;5.40;;;1.60;;
49071;SDS011;52656;52.610;10.236;2023-07-13T14:14:37;2.28;;;1.40;;
49071;SDS011;52656;52.610;10.236;2023-07-13T14:17:03;2.55;;;1.50;;
49071;SDS011;52656;52.610;10.236;2023-07-13T14:19:29;1.98;;;1.40;;
49071;SDS011;52656;52.610;10.236;2023-07-13T14:21:54;3.80;;;1.40;;
49071;SDS011;52656;52.610;10.236;2023-07-13T14:24:19;3.78;;;1.55;;
49071;SDS011;52656;52.610;10.236;2023-07-13T14:26:46;2.95;;;1.58;;
49071;SDS011;52656;52.610;10.236;2023-07-13T14:29:13;3.67;;;1.60;;
49071;SDS011;52656;52.610;10.236;2023-07-13T14:31:41;3.85;;;1.58;;
49071;SDS011;52656;52.610;10.236;2023-07-13T14:34:07;4.65;;;1.40;;
49071;SDS011;52656;52.610;10.236;2023-07-13T14:36:41;1.98;;;1.30;;
49071;SDS011;52656;52.610;10.236;2023-07-13T14:39:11;3.08;;;1.20;;
49071;SDS011;52656;52.610;10.236;2023-07-13T14:41:40;2.55;;;1.30;;
49071;SDS011;52656;52.610;10.236;2023-07-13T14:44:11;5.53;;;1.50;;
49071;SDS011;52656;52.610;10.236;2023-07-13T14:46:40;3.85;;;1.40;;
49071;SDS011;52656;52.610;10.236;2023-07-13T14:51:47;3.85;;;1.40;;
49071;SDS011;52656;52.610;10.236;2023-07-13T14:54:12;2.67;;;1.50;;
49071;SDS011;52656;52.610;10.236;2023-07-13T14:56:37;3.17;;;1.30;;
49071;SDS011;52656;52.610;10.236;2023-07-13T14:59:03;3.75;;;1.50;;
49071;SDS011;52656;52.610;10.236;2023-07-13T15:01:29;4.13;;;1.73;;
49071;SDS011;52656;52.610;10.236;2023-07-13T15:03:55;1.80;;;1.35;;
49071;SDS011;52656;52.610;10.236;2023-07-13T15:06:22;2.33;;;1.52;;
49071;SDS011;52656;52.610;10.236;2023-07-13T15:08:47;3.83;;;1.40;;
49071;SDS011;52656;52.610;10.236;2023-07-13T15:11:13;4.00;;;1.85;;
49071;SDS011;52656;52.610;10.236;2023-07-13T15:13:41;2.92;;;1.60;;
49071;SDS011;52656;52.610;10.236;2023-07-13T15:16:14;3.58;;;1.67;;
49071;SDS011;52656;52.610;10.236;2023-07-13T15:18:43;3.45;;;1.70;;
49071;SDS011;52656;52.610;10.236;2023-07-13T15:21:10;4.43;;;1.60;;
49071;SDS011;52656;52.610;10.236;2023-07-13T15:23:39;2.88;;;1.70;;
49071;SDS011;52656;52.610;10.236;2023-07-13T15:26:05;2.58;;;1.58;;
49071;SDS011;52656;52.610;10.236;2023-07-13T15:28:42;4.38;;;1.83;;
49071;SDS011;52656;52.610;10.236;2023-07-13T15:31:22;2.42;;;1.52;;
49071;SDS011;52656;52.610;10.236;2023-07-13T15:33:52;2.13;;;1.60;;
49071;SDS011;52656;52.610;10.236;2023-07-13T15:36:20;5.00;;;1.70;;
49071;SDS011;52656;52.610;10.236;2023-07-13T15:38:47;2.55;;;1.60;;
49071;SDS011;52656;52.610;10.236;2023-07-13T15:41:17;3.63;;;1.60;;
49071;SDS011;52656;52.610;10.236;2023-07-13T15:43:53;2.40;;;1.42;;
49071;SDS011;52656;52.610;10.236;2023-07-13T15:46:20;3.80;;;1.80;;
49071;SDS011;52656;52.610;10.236;2023-07-13T15:48:47;2.10;;;1.50;;
49071;SDS011;52656;52.610;10.236;2023-07-13T15:51:24;4.25;;;1.73;;
49071;SDS011;52656;52.610;10.236;2023-07-13T15:53:55;3.80;;;1.70;;
49071;SDS011;52656;52.610;10.236;2023-07-13T15:56:26;2.33;;;1.55;;
49071;SDS011;52656;52.610;10.236;2023-07-13T15:58:54;2.40;;;1.63;;
49071;SDS011;52656;52.610;10.236;2023-07-13T16:01:21;6.57;;;2.08;;
49071;SDS011;52656;52.610;10.236;2023-07-13T16:03:47;2.72;;;1.80;;
49071;SDS011;52656;52.610;10.236;2023-07-13T16:06:13;4.30;;;2.28;;
49071;SDS011;52656;52.610;10.236;2023-07-13T16:08:45;3.35;;;1.63;;
49071;SDS011;52656;52.610;10.236;2023-07-13T16:11:19;3.13;;;1.90;;
49071;SDS011;52656;52.610;10.236;2023-07-13T16:13:52;4.00;;;1.90;;
49071;SDS011;52656;52.610;10.236;2023-07-13T16:16:20;4.05;;;2.22;;
49071;SDS011;52656;52.610;10.236;2023-07-13T16:18:54;2.97;;;1.80;;
49071;SDS011;52656;52.610;10.236;2023-07-13T16:21:21;2.92;;;1.80;;
49071;SDS011;52656;52.610;10.236;2023-07-13T16:24:00;3.80;;;1.90;;
49071;SDS011;52656;52.610;10.236;2023-07-13T16:26:28;4.68;;;1.70;;
49071;SDS011;52656;52.610;10.236;2023-07-13T16:29:16;2.85;;;1.75;;
49071;SDS011;52656;52.610;10.236;2023-07-13T16:32:02;2.88;;;1.80;;
49071;SDS011;52656;52.610;10.236;2023-07-13T16:34:29;2.58;;;1.60;;
49071;SDS011;52656;52.610;10.236;2023-07-13T16:36:58;2.17;;;1.67;;
49071;SDS011;52656;52.610;10.236;2023-07-13T16:39:26;4.07;;;1.80;;
49071;SDS011;52656;52.610;10.236;2023-07-13T16:41:56;3.35;;;1.80;;
49071;SDS011;52656;52.610;10.236;2023-07-13T16:44:23;4.57;;;1.80;;
49071;SDS011;52656;52.610;10.236;2023-07-13T16:46:51;3.42;;;1.60;;
49071;SDS011;52656;52.610;10.236;2023-07-13T16:49:25;3.17;;;1.63;;
49071;SDS011;52656;52.610;10.236;2023-07-13T16:51:53;4.88;;;1.60;;
49071;SDS011;52656;52.610;10.236;2023-07-13T16:54:18;2.05;;;1.48;;
49071;SDS011;52656;52.610;10.236;2023-07-13T16:56:45;4.75;;;1.67;;
49071;SDS011;52656;52.610;10.236;2023-07-13T16:59:15;2.72;;;1.50;;
49071;SDS011;52656;52.610;10.236;2023-07-13T17:01:44;2.67;;;1.70;;